Time;durP1;ratioP1;P1;durP2;ratioP2;P2;SDS_P1;SDS_P2;PMS_P1;PMS_P2;Temp;Humidity;BMP_temperature;BMP_pressure;BME280_temperature;BME280_humidity;BME280_pressure;Samples;Min_cycle;Max_cycle;Signal;HPM_P1;HPM_P2
2021/01/31 03:15:12;;;;;;;1.70;1.60;;;18.20;71.70;;;;;;5125872;27;20359;-30
2021/01/31 03:17:43;;;;;;;1.55;1.45;;;18.40;71.10;;;;;;5104592;28;20028;-31
2021/01/31 03:20:24;;;;;;;1.60;1.35;;;18.40;70.80;;;;;;5102786;28;20044;-29
2021/01/31 03:23:03;;;;;;;1.73;1.63;;;18.40;70.70;;;;;;5096606;28;20478;-31
2021/01/31 03:26:00;;;;;;;1.38;1.27;;;18.50;70.60;;;;;;5096397;28;20113;-27
2021/01/31 03:28:26;;;;;;;1.55;1.45;;;18.50;70.50;;;;;;5061650;28;20521;-31
2021/01/31 03:30:52;;;;;;;1.67;1.58;;;18.50;70.50;;;;;;5045101;28;20029;-27
2021/01/31 03:33:25;;;;;;;1.70;1.60;;;18.50;70.50;;;;;;5047479;28;20040;-28
2021/01/31 03:35:51;;;;;;;1.15;1.15;;;18.60;70.50;;;;;;5048655;28;20036;-28
2021/01/31 03:38:25;;;;;;;1.23;1.23;;;18.50;70.20;;;;;;5066399;28;20409;-30
2021/01/31 03:40:51;;;;;;;;;;;18.50;70.10;;;;;;5047759;28;20021;-30
2021/01/31 03:43:17;;;;;;;1.30;1.20;;;18.60;70.30;;;;;;5064840;28;20396;-32
2021/01/31 03:45:55;;;;;;;1.50;1.40;;;18.60;70.20;;;;;;5064610;28;20045;-28
2021/01/31 03:48:23;;;;;;;1.55;1.45;;;18.60;70.20;;;;;;5048453;28;20021;-30
2021/01/31 03:50:49;;;;;;;1.50;1.40;;;18.60;70.40;;;;;;5048655;28;20398;-30
2021/01/31 03:53:14;;;;;;;1.27;1.17;;;18.60;70.30;;;;;;5066414;28;20045;-29
2021/01/31 03:55:41;;;;;;;1.50;1.40;;;18.60;70.30;;;;;;5064839;28;20422;-27
2021/01/31 03:58:07;;;;;;;1.17;1.08;;;18.60;70.40;;;;;;5046924;28;20032;-29
2021/01/31 04:00:35;;;;;;;1.13;1.10;;;18.60;71.00;;;;;;5048128;28;20035;-28
2021/01/31 04:03:12;;;;;;;1.38;1.27;;;18.60;70.20;;;;;;5047734;28;20037;-28
2021/01/31 04:05:40;;;;;;;1.15;1.15;;;18.50;70.20;;;;;;5087028;28;20024;-32
2021/01/31 04:08:07;;;;;;;1.33;1.10;;;18.60;70.30;;;;;;5101774;28;20051;-30
2021/01/31 04:10:32;;;;;;;1.10;1.00;;;18.60;70.20;;;;;;5106447;28;20020;-29
2021/01/31 04:12:58;;;;;;;1.50;1.40;;;18.60;70.40;;;;;;5110015;27;20047;-32
2021/01/31 04:15:36;;;;;;;1.40;1.30;;;18.60;70.30;;;;;;5093380;28;20065;-31
2021/01/31 04:18:01;;;;;;;1.10;1.10;;;18.60;70.30;;;;;;5076008;28;20029;-27
2021/01/31 04:20:27;;;;;;;1.20;1.10;;;18.60;70.30;;;;;;5090368;28;20546;-28
2021/01/31 04:22:53;;;;;;;1.08;1.08;;;18.60;70.20;;;;;;5080049;28;20036;-29
2021/01/31 04:25:19;;;;;;;1.20;1.10;;;18.60;70.30;;;;;;5079353;28;20426;-27
2021/01/31 04:27:44;;;;;;;1.35;1.30;;;18.60;70.10;;;;;;5080208;28;20020;-29
2021/01/31 04:30:10;;;;;;;1.15;0.85;;;18.60;70.20;;;;;;5091909;28;20400;-28
2021/01/31 04:32:36;;;;;;;1.00;1.00;;;18.60;70.10;;;;;;5090438;28;20488;-30
2021/01/31 04:35:06;;;;;;;1.10;1.00;;;18.60;70.20;;;;;;5088847;28;20038;-29
2021/01/31 04:37:32;;;;;;;1.15;1.10;;;18.60;70.20;;;;;;5087649;28;20032;-26
2021/01/31 04:39:57;;;;;;;1.10;1.00;;;18.60;70.20;;;;;;5088217;28;20540;-27
2021/01/31 04:42:23;;;;;;;0.90;0.90;;;18.60;71.10;;;;;;5076735;28;20021;-29
2021/01/31 04:44:49;;;;;;;1.02;0.93;;;18.50;70.10;;;;;;5076789;28;20024;-31
2021/01/31 04:47:51;;;;;;;1.17;1.08;;;18.60;70.30;;;;;;5078635;28;20509;-34
2021/01/31 04:50:25;;;;;;;0.77;0.77;;;18.60;70.40;;;;;;5102684;28;20428;-33
2021/01/31 04:53:01;;;;;;;1.05;1.00;;;18.60;70.10;;;;;;5062091;28;20056;-29
2021/01/31 04:55:33;;;;;;;1.17;1.08;;;18.60;70.40;;;;;;5080076;28;20044;-30
2021/01/31 04:58:04;;;;;;;1.10;1.00;;;18.60;70.20;;;;;;5074360;28;20074;-27
2021/01/31 05:00:30;;;;;;;1.02;1.02;;;18.60;70.20;;;;;;5090181;28;20031;-36
2021/01/31 05:03:00;;;;;;;0.80;0.80;;;18.50;70.10;;;;;;5074159;28;20107;-30
2021/01/31 05:05:51;;;;;;;1.40;1.08;;;18.50;70.10;;;;;;5096633;28;20022;-32
2021/01/31 05:08:21;;;;;;;1.17;1.10;;;18.50;70.30;;;;;;5078134;28;20028;-27
2021/01/31 05:10:48;;;;;;;1.20;1.10;;;18.50;70.20;;;;;;5078876;28;20029;-33
2021/01/31 05:13:23;;;;;;;1.00;1.00;;;18.50;70.30;;;;;;5085418;28;20045;-33
2021/01/31 05:15:51;;;;;;;0.90;0.90;;;18.50;70.20;;;;;;5076951;28;20028;-31
2021/01/31 05:18:17;;;;;;;0.90;0.90;;;18.50;70.40;;;;;;5089815;28;20496;-27
2021/01/31 05:20:43;;;;;;;0.80;0.80;;;18.50;70.10;;;;;;5103591;28;20112;-33
2021/01/31 05:23:08;;;;;;;0.60;0.60;;;18.50;70.20;;;;;;5085489;28;20040;-29
2021/01/31 05:25:37;;;;;;;0.90;0.90;;;18.50;70.10;;;;;;5080802;28;20081;-27
2021/01/31 05:28:04;;;;;;;0.60;0.60;;;18.50;70.40;;;;;;5089536;28;20058;-34
2021/01/31 05:30:29;;;;;;;0.90;0.90;;;18.50;70.40;;;;;;5077045;28;20095;-29
2021/01/31 05:33:07;;;;;;;0.77;0.77;;;18.50;70.50;;;;;;5074211;28;20123;-34
2021/01/31 05:35:35;;;;;;;0.93;0.93;;;18.50;70.50;;;;;;5102156;28;20114;-29
2021/01/31 05:38:01;;;;;;;1.20;1.10;;;18.50;70.40;;;;;;5087123;28;20020;-28
2021/01/31 05:40:41;;;;;;;0.90;0.90;;;18.50;70.60;;;;;;5086285;28;20035;-29
2021/01/31 05:43:14;;;;;;;0.80;0.80;;;18.50;70.50;;;;;;5086576;28;20029;-29
2021/01/31 05:45:41;;;;;;;1.33;1.00;;;18.50;70.50;;;;;;5080668;28;20043;-32
2021/01/31 05:48:22;;;;;;;0.70;0.70;;;18.50;70.50;;;;;;5088575;28;20099;-30
2021/01/31 05:50:47;;;;;;;1.38;0.95;;;18.50;70.50;;;;;;5075037;28;20374;-33
2021/01/31 05:53:35;;;;;;;0.90;0.90;;;18.50;70.50;;;;;;5085236;28;20076;-35
2021/01/31 05:56:21;;;;;;;0.80;0.80;;;18.50;70.40;;;;;;5086846;28;20081;-28
2021/01/31 05:58:48;;;;;;;0.82;0.82;;;18.50;70.50;;;;;;5085697;28;20060;-31
2021/01/31 06:01:14;;;;;;;0.90;0.90;;;18.50;70.50;;;;;;5085909;28;20020;-31
2021/01/31 06:03:39;;;;;;;0.90;0.90;;;18.50;70.30;;;;;;5088512;28;20044;-30
2021/01/31 06:06:12;;;;;;;1.02;1.02;;;18.40;70.30;;;;;;5072945;28;20020;-30
2021/01/31 06:08:40;;;;;;;1.10;1.10;;;18.40;70.40;;;;;;5075547;28;20021;-31
2021/01/31 06:11:11;;;;;;;0.90;0.90;;;18.40;70.50;;;;;;5085687;28;20492;-30
2021/01/31 06:13:37;;;;;;;0.98;0.90;;;18.40;70.60;;;;;;5076801;28;20135;-30
2021/01/31 06:16:05;;;;;;;0.82;0.82;;;18.40;70.60;;;;;;5078567;28;20111;-30
2021/01/31 06:18:42;;;;;;;0.90;0.85;;;18.40;70.70;;;;;;5097842;28;20012;-31
2021/01/31 06:21:12;;;;;;;1.10;1.00;;;18.40;70.40;;;;;;5073378;28;20104;-29
2021/01/31 06:23:45;;;;;;;0.93;0.93;;;18.40;70.50;;;;;;5088345;28;20028;-29
2021/01/31 06:26:27;;;;;;;0.90;0.90;;;18.40;70.50;;;;;;5087608;28;20024;-33
2021/01/31 06:28:58;;;;;;;0.80;0.80;;;18.40;70.50;;;;;;5078962;28;20082;-28
2021/01/31 06:31:32;;;;;;;0.77;0.77;;;18.40;70.60;;;;;;5065534;28;20025;-30
2021/01/31 06:33:58;;;;;;;;;;;18.40;70.60;;;;;;5084628;28;20036;-31
2021/01/31 06:36:34;;;;;;;0.77;0.77;;;18.40;70.70;;;;;;5087515;28;19915;-31
2021/01/31 06:39:28;;;;;;;0.90;0.90;;;18.40;70.80;;;;;;5071993;28;20165;-29
2021/01/31 06:41:57;;;;;;;0.85;0.85;;;18.40;70.70;;;;;;5088591;28;20028;-31
2021/01/31 06:44:40;;;;;;;0.70;0.70;;;18.40;70.70;;;;;;5089663;28;20039;-28
2021/01/31 06:47:21;;;;;;;0.60;0.60;;;18.40;70.70;;;;;;5058334;28;20028;-33
2021/01/31 06:50:11;;;;;;;0.73;0.73;;;18.40;70.70;;;;;;5078522;28;20119;-28
2021/01/31 06:52:39;;;;;;;0.63;0.63;;;18.30;70.70;;;;;;5078877;28;20025;-33
2021/01/31 06:55:26;;;;;;;0.63;0.63;;;18.30;70.60;;;;;;5076900;28;20020;-32
2021/01/31 06:58:16;;;;;;;0.68;0.68;;;18.30;70.70;;;;;;5076117;28;20560;-29
2021/01/31 07:00:54;;;;;;;0.90;0.90;;;18.30;70.70;;;;;;5076201;28;20052;-31
2021/01/31 07:03:53;;;;;;;0.57;0.57;;;18.30;70.70;;;;;;5087132;28;20520;-29
2021/01/31 07:06:28;;;;;;;1.58;0.70;;;18.30;70.80;;;;;;5076360;28;20031;-35
2021/01/31 07:09:09;;;;;;;0.85;0.85;;;18.30;70.80;;;;;;5072496;28;20029;-31
2021/01/31 07:11:44;;;;;;;0.75;0.75;;;18.30;70.80;;;;;;5086573;28;20077;-30
2021/01/31 07:14:16;;;;;;;0.90;0.90;;;18.30;70.70;;;;;;5085462;28;20040;-28
2021/01/31 07:16:49;;;;;;;0.70;0.70;;;18.40;70.70;;;;;;5079070;28;20051;-33
2021/01/31 07:19:29;;;;;;;0.77;0.77;;;18.40;70.60;;;;;;5082569;28;20027;-29
2021/01/31 07:22:30;;;;;;;0.90;0.90;;;18.30;70.50;;;;;;5063833;28;20021;-32
2021/01/31 07:25:18;;;;;;;0.90;0.90;;;18.30;70.60;;;;;;5068370;28;20132;-30
2021/01/31 07:28:08;;;;;;;0.70;0.70;;;18.30;70.60;;;;;;5060259;28;20120;-30
2021/01/31 07:31:01;;;;;;;0.73;0.70;;;18.30;70.80;;;;;;5066712;28;20545;-29
2021/01/31 07:33:39;;;;;;;0.90;0.90;;;18.30;70.80;;;;;;5049492;28;20116;-34
2021/01/31 07:36:26;;;;;;;0.80;0.80;;;18.30;70.70;;;;;;5068599;28;20036;-33
2021/01/31 07:39:04;;;;;;;0.60;0.60;;;18.30;70.70;;;;;;5052135;28;20045;-31
2021/01/31 07:41:29;;;;;;;0.68;0.68;;;18.30;70.70;;;;;;5068428;28;20079;-29
2021/01/31 07:43:58;;;;;;;0.80;0.80;;;18.30;70.60;;;;;;5052279;28;20088;-29
2021/01/31 07:46:23;;;;;;;0.85;0.77;;;18.30;70.50;;;;;;5062166;28;20030;-33
2021/01/31 07:48:52;;;;;;;0.60;0.60;;;18.30;70.80;;;;;;5051427;28;20115;-31
2021/01/31 07:51:24;;;;;;;0.60;0.60;;;18.30;70.60;;;;;;5071375;28;20028;-29
2021/01/31 07:53:50;;;;;;;0.80;0.80;;;18.30;70.70;;;;;;5071435;28;20505;-31
2021/01/31 07:56:30;;;;;;;0.70;0.70;;;18.30;70.60;;;;;;5040850;28;20055;-32
2021/01/31 07:59:08;;;;;;;0.80;0.80;;;18.30;70.60;;;;;;5071803;28;20036;-31
2021/01/31 08:01:39;;;;;;;0.70;0.70;;;18.30;70.50;;;;;;5084342;28;20110;-33
2021/01/31 08:04:24;;;;;;;1.30;0.90;;;18.30;70.40;;;;;;5091589;28;20063;-27
2021/01/31 08:06:50;;;;;;;1.10;1.00;;;18.30;70.40;;;;;;5092885;28;20039;-30
2021/01/31 08:09:28;;;;;;;0.60;0.60;;;18.30;70.50;;;;;;5094439;28;20518;-32
2021/01/31 08:12:01;;;;;;;0.60;0.60;;;18.30;70.50;;;;;;5081348;28;20038;-29
2021/01/31 08:15:04;;;;;;;0.70;0.70;;;18.30;70.40;;;;;;5090622;28;20105;-31
2021/01/31 08:17:48;;;;;;;0.70;0.70;;;18.30;70.20;;;;;;5079427;28;20067;-29
2021/01/31 08:20:20;;;;;;;0.80;0.80;;;18.30;70.30;;;;;;5080226;28;20032;-29
2021/01/31 08:22:45;;;;;;;0.70;0.70;;;18.30;70.50;;;;;;5086825;28;20035;-33
2021/01/31 08:25:12;;;;;;;2.05;0.80;;;18.30;70.20;;;;;;5089586;28;20028;-32
2021/01/31 08:27:37;;;;;;;0.65;0.65;;;18.30;70.30;;;;;;5086494;28;20078;-30
2021/01/31 08:30:13;;;;;;;1.45;0.90;;;18.30;70.30;;;;;;5086061;28;20032;-29
2021/01/31 08:32:57;;;;;;;0.80;0.80;;;18.30;70.30;;;;;;5087287;28;20474;-28
2021/01/31 08:35:24;;;;;;;2.38;1.08;;;18.30;70.40;;;;;;5085432;28;20074;-32
2021/01/31 08:37:52;;;;;;;1.05;1.00;;;18.30;70.40;;;;;;5083830;28;20036;-31
2021/01/31 08:40:21;;;;;;;0.80;0.80;;;18.40;70.30;;;;;;5085816;28;20078;-30
2021/01/31 08:42:51;;;;;;;1.67;0.93;;;18.40;69.50;;;;;;5089711;28;20093;-30
2021/01/31 08:45:16;;;;;;;0.90;0.90;;;18.40;70.10;;;;;;5086157;28;20118;-34
2021/01/31 08:47:42;;;;;;;1.83;1.73;;;18.40;70.00;;;;;;5073492;28;20110;-31
2021/01/31 08:50:08;;;;;;;1.48;1.40;;;18.40;70.30;;;;;;5082512;28;20031;-31
2021/01/31 08:52:33;;;;;;;1.42;1.25;;;18.40;70.20;;;;;;5083465;28;20111;-30
2021/01/31 08:55:04;;;;;;;1.40;1.40;;;18.40;69.60;;;;;;5084521;28;20028;-32
2021/01/31 08:57:30;;;;;;;2.00;1.90;;;18.50;69.50;;;;;;5083298;28;20115;-30
2021/01/31 08:59:57;;;;;;;3.17;2.47;;;18.50;69.10;;;;;;5075921;28;20080;-35
2021/01/31 09:02:26;;;;;;;2.20;2.10;;;18.40;68.10;;;;;;5083168;28;20047;-31
2021/01/31 09:04:53;;;;;;;4.57;3.40;;;18.40;69.00;;;;;;5084805;28;20070;-29
2021/01/31 09:07:24;;;;;;;5.30;4.95;;;18.40;69.20;;;;;;5083828;28;20460;-35
2021/01/31 09:09:56;;;;;;;5.50;5.10;;;18.50;69.10;;;;;;5085233;28;20028;-30
2021/01/31 09:12:22;;;;;;;5.00;4.70;;;18.50;68.90;;;;;;5071717;28;20020;-36
2021/01/31 09:14:48;;;;;;;6.80;6.10;;;18.50;68.90;;;;;;5087066;28;20052;-35
2021/01/31 09:17:25;;;;;;;6.53;5.93;;;18.50;69.10;;;;;;5088407;28;20027;-32
2021/01/31 09:20:07;;;;;;;6.28;5.72;;;18.50;69.20;;;;;;5087817;28;20054;-37
2021/01/31 09:22:32;;;;;;;5.78;5.28;;;18.40;69.40;;;;;;5085481;28;20028;-35
2021/01/31 09:25:00;;;;;;;6.15;5.65;;;18.40;69.40;;;;;;5067076;28;20032;-31
2021/01/31 09:27:26;;;;;;;6.72;6.13;;;18.40;69.70;;;;;;5087185;28;20573;-33
2021/01/31 09:30:05;;;;;;;5.70;5.20;;;18.40;69.90;;;;;;5085959;28;20107;-33
2021/01/31 09:32:39;;;;;;;5.80;5.40;;;18.30;69.40;;;;;;5083104;28;20058;-34
2021/01/31 09:35:07;;;;;;;5.47;5.07;;;18.30;70.00;;;;;;5074134;28;20024;-33
2021/01/31 09:37:32;;;;;;;6.65;5.93;;;18.30;70.10;;;;;;5085392;28;20067;-32
2021/01/31 09:39:59;;;;;;;6.63;5.93;;;18.30;70.10;;;;;;5084832;28;20472;-34
2021/01/31 09:42:35;;;;;;;5.60;5.30;;;18.30;70.10;;;;;;5066452;28;20510;-35
2021/01/31 09:45:08;;;;;;;6.28;5.80;;;18.30;70.10;;;;;;5088004;28;20063;-38
2021/01/31 09:47:34;;;;;;;5.40;5.00;;;18.30;70.20;;;;;;5082303;28;20099;-34
2021/01/31 09:50:03;;;;;;;5.28;4.88;;;18.20;69.90;;;;;;5086363;28;20124;-31
2021/01/31 09:52:29;;;;;;;5.18;4.78;;;18.30;70.10;;;;;;5085875;28;20401;-31
2021/01/31 09:54:55;;;;;;;5.88;4.72;;;18.30;70.20;;;;;;5084105;28;20034;-32
2021/01/31 09:57:28;;;;;;;4.60;4.30;;;18.30;70.00;;;;;;5085225;28;20374;-31
2021/01/31 10:00:09;;;;;;;5.07;4.55;;;18.30;69.70;;;;;;5082178;28;20107;-33
2021/01/31 10:02:35;;;;;;;3.78;3.58;;;18.30;70.00;;;;;;5085060;28;20040;-33
2021/01/31 10:05:02;;;;;;;4.35;3.80;;;18.30;69.80;;;;;;5068960;28;20066;-32
2021/01/31 10:07:32;;;;;;;3.83;3.63;;;18.30;69.80;;;;;;5085162;28;20017;-33
2021/01/31 10:09:58;;;;;;;4.47;4.10;;;18.30;69.90;;;;;;5086323;28;20040;-33
2021/01/31 10:12:31;;;;;;;3.40;3.20;;;18.30;69.40;;;;;;5085488;28;20032;-40
2021/01/31 10:15:07;;;;;;;3.30;3.10;;;18.30;69.10;;;;;;5080406;28;20060;-31
2021/01/31 10:17:40;;;;;;;7.75;4.30;;;18.40;69.90;;;;;;5083305;28;20035;-38
2021/01/31 10:20:28;;;;;;;8.95;5.22;;;18.40;69.40;;;;;;5089231;28;20111;-31
2021/01/31 10:23:00;;;;;;;7.97;4.20;;;18.30;69.20;;;;;;5083333;28;20108;-29
2021/01/31 10:25:26;;;;;;;8.00;5.10;;;18.40;69.00;;;;;;5084123;28;20038;-32
2021/01/31 10:27:52;;;;;;;8.90;4.93;;;18.40;68.60;;;;;;5086225;28;20409;-30
2021/01/31 10:30:26;;;;;;;6.68;4.13;;;18.40;68.30;;;;;;5084752;28;20059;-34
2021/01/31 10:32:52;;;;;;;6.10;4.25;;;18.40;68.90;;;;;;5080986;28;20173;-33
2021/01/31 10:35:31;;;;;;;4.47;4.05;;;18.40;68.50;;;;;;5085559;28;20532;-35
2021/01/31 10:37:57;;;;;;;6.60;4.65;;;18.40;68.30;;;;;;5081724;28;20032;-38
2021/01/31 10:40:22;;;;;;;7.95;5.50;;;18.30;68.40;;;;;;5074275;28;20033;-28
2021/01/31 10:42:48;;;;;;;4.50;4.10;;;18.40;68.00;;;;;;5068766;28;20044;-30
2021/01/31 10:45:16;;;;;;;3.83;3.05;;;18.30;68.00;;;;;;5070541;28;20110;-31
2021/01/31 10:47:45;;;;;;;4.65;3.55;;;18.30;68.10;;;;;;5068696;28;20025;-32
2021/01/31 10:50:13;;;;;;;4.20;3.80;;;18.40;68.30;;;;;;5070261;28;20098;-36
2021/01/31 10:52:39;;;;;;;4.72;3.72;;;18.40;68.00;;;;;;4715907;28;9999682;-31
2021/01/31 10:55:05;;;;;;;6.10;4.20;;;18.40;67.60;;;;;;5068298;28;20138;-31
2021/01/31 10:57:31;;;;;;;5.80;3.72;;;18.40;68.30;;;;;;5069024;28;20040;-31
2021/01/31 10:59:57;;;;;;;6.47;3.92;;;18.40;68.60;;;;;;5072217;28;20147;-37
2021/01/31 11:02:22;;;;;;;4.93;3.83;;;18.40;68.90;;;;;;5068932;28;20024;-30
2021/01/31 11:04:48;;;;;;;5.28;3.70;;;18.40;68.60;;;;;;5066150;28;20588;-35
2021/01/31 11:07:13;;;;;;;5.63;3.78;;;18.40;68.50;;;;;;5068678;28;20025;-33
2021/01/31 11:09:39;;;;;;;6.22;3.70;;;18.40;68.50;;;;;;5069078;28;20068;-35
2021/01/31 11:12:05;;;;;;;5.97;4.03;;;18.40;68.50;;;;;;5068006;28;20028;-37
2021/01/31 11:14:30;;;;;;;3.60;3.30;;;18.30;68.30;;;;;;5070467;28;20051;-31
2021/01/31 11:16:58;;;;;;;4.55;3.58;;;18.40;68.50;;;;;;5067219;28;20516;-36
2021/01/31 11:19:23;;;;;;;6.43;3.60;;;18.40;68.30;;;;;;5069777;28;20032;-31
2021/01/31 11:21:49;;;;;;;4.20;3.50;;;18.40;68.40;;;;;;5071589;28;20058;-34
2021/01/31 11:24:14;;;;;;;3.58;3.10;;;18.40;68.30;;;;;;5068003;28;20047;-35
2021/01/31 11:26:40;;;;;;;4.90;3.60;;;18.50;68.20;;;;;;5072330;28;20032;-31
2021/01/31 11:29:06;;;;;;;5.40;3.80;;;18.50;68.10;;;;;;5074030;28;20592;-36
2021/01/31 11:31:31;;;;;;;4.47;3.38;;;18.40;68.40;;;;;;5070996;28;20810;-30
2021/01/31 11:33:57;;;;;;;4.78;2.95;;;18.40;68.70;;;;;;5071878;28;20037;-35
2021/01/31 11:36:23;;;;;;;3.33;2.75;;;18.30;68.60;;;;;;5071233;28;20032;-31
2021/01/31 11:38:49;;;;;;;2.60;2.40;;;18.30;67.90;;;;;;5073413;28;20032;-38
2021/01/31 11:41:15;;;;;;;4.00;2.50;;;18.30;68.20;;;;;;5071697;28;20031;-35
2021/01/31 11:43:41;;;;;;;3.80;2.83;;;18.40;67.60;;;;;;5071932;28;20044;-35
2021/01/31 11:46:06;;;;;;;2.40;2.10;;;18.40;67.70;;;;;;5069933;28;20039;-33
2021/01/31 11:48:32;;;;;;;2.05;1.85;;;18.30;67.00;;;;;;5070261;28;20474;-33
2021/01/31 11:50:57;;;;;;;2.45;2.25;;;18.40;67.50;;;;;;5069975;28;20067;-34
2021/01/31 11:53:23;;;;;;;2.33;2.05;;;18.40;67.80;;;;;;5071043;28;20048;-33
2021/01/31 11:55:49;;;;;;;1.98;1.83;;;18.40;67.60;;;;;;5067638;28;20035;-33
2021/01/31 11:58:15;;;;;;;2.05;1.90;;;18.50;67.90;;;;;;5067724;28;20055;-31
2021/01/31 12:00:41;;;;;;;2.63;2.10;;;18.50;67.50;;;;;;5067177;28;20620;-32
2021/01/31 12:03:08;;;;;;;2.65;1.83;;;18.50;67.20;;;;;;5065067;28;20386;-33
2021/01/31 12:05:33;;;;;;;3.22;2.15;;;18.60;67.30;;;;;;5066518;28;20062;-34
2021/01/31 12:07:59;;;;;;;2.28;1.80;;;18.60;68.40;;;;;;5060108;28;20526;-29
2021/01/31 12:10:25;;;;;;;2.17;1.98;;;18.70;68.10;;;;;;5058573;28;20050;-35
2021/01/31 12:12:51;;;;;;;4.07;1.80;;;18.70;68.40;;;;;;5060144;28;20062;-35
2021/01/31 12:15:17;;;;;;;2.28;1.70;;;18.60;67.50;;;;;;5060364;28;20534;-38
2021/01/31 12:17:43;;;;;;;2.10;1.90;;;18.60;68.40;;;;;;5063378;28;20036;-33
2021/01/31 12:20:09;;;;;;;7.13;4.47;;;18.60;68.40;;;;;;5062029;28;20553;-37
2021/01/31 12:22:35;;;;;;;4.95;4.32;;;18.60;68.20;;;;;;5062000;28;20024;-32
2021/01/31 12:25:01;;;;;;;17.08;4.38;;;18.60;68.50;;;;;;5061003;28;20101;-31
2021/01/31 12:27:27;;;;;;;4.35;3.88;;;18.60;68.10;;;;;;5061490;28;20032;-38
2021/01/31 12:29:53;;;;;;;4.30;3.22;;;18.60;68.40;;;;;;5039165;28;20060;-31
2021/01/31 12:32:18;;;;;;;5.00;3.92;;;18.70;67.70;;;;;;5023045;28;20037;-31
2021/01/31 12:34:44;;;;;;;5.20;4.65;;;18.70;68.00;;;;;;5023513;28;20049;-36
2021/01/31 12:37:10;;;;;;;4.15;3.78;;;18.70;68.00;;;;;;5024618;28;20098;-33
2021/01/31 12:39:35;;;;;;;5.07;4.57;;;18.70;67.90;;;;;;5026318;28;20069;-40
2021/01/31 12:42:01;;;;;;;4.75;4.10;;;18.70;68.40;;;;;;5024527;28;20056;-35
2021/01/31 12:44:27;;;;;;;4.30;3.90;;;18.70;68.40;;;;;;5032676;28;20140;-30
2021/01/31 12:46:52;;;;;;;3.88;3.58;;;18.80;67.50;;;;;;5026964;28;20049;-35
2021/01/31 12:49:18;;;;;;;4.65;4.10;;;18.80;67.90;;;;;;5026900;28;20061;-32
2021/01/31 12:51:43;;;;;;;4.88;3.58;;;18.80;67.80;;;;;;5019786;28;20121;-35
2021/01/31 12:54:09;;;;;;;4.00;3.60;;;18.80;67.60;;;;;;5026215;28;20038;-30
2021/01/31 12:56:34;;;;;;;4.80;3.78;;;18.70;68.00;;;;;;5028420;28;20045;-36
2021/01/31 12:59:00;;;;;;;4.32;3.70;;;18.70;67.90;;;;;;5026823;28;20056;-32
2021/01/31 13:01:26;;;;;;;3.60;3.30;;;18.80;68.70;;;;;;5028538;28;20029;-34
2021/01/31 13:03:52;;;;;;;3.60;3.30;;;18.70;67.60;;;;;;5029816;28;20487;-34
2021/01/31 13:06:17;;;;;;;4.43;3.35;;;18.70;67.90;;;;;;5027451;28;20126;-34
2021/01/31 13:08:43;;;;;;;3.95;3.30;;;18.70;67.60;;;;;;5028935;28;20884;-36
2021/01/31 13:11:08;;;;;;;3.05;2.85;;;18.80;68.00;;;;;;5029619;28;20439;-34
2021/01/31 13:13:34;;;;;;;3.67;3.38;;;18.80;67.70;;;;;;5029027;28;20053;-33
2021/01/31 13:16:00;;;;;;;3.03;2.67;;;18.80;67.90;;;;;;5026378;28;20056;-32
2021/01/31 13:18:25;;;;;;;3.17;2.88;;;18.80;67.80;;;;;;5026857;28;20036;-34
2021/01/31 13:20:51;;;;;;;3.55;3.10;;;18.80;67.80;;;;;;5023966;28;20495;-32
2021/01/31 13:23:17;;;;;;;3.17;2.85;;;18.90;68.00;;;;;;5026897;28;20037;-32
2021/01/31 13:25:43;;;;;;;2.88;2.67;;;18.90;67.60;;;;;;5028964;28;20043;-38
2021/01/31 13:28:08;;;;;;;3.20;2.90;;;18.90;67.80;;;;;;5027380;28;20022;-35
2021/01/31 13:30:36;;;;;;;2.55;2.45;;;18.90;67.70;;;;;;5027079;28;20033;-36
2021/01/31 13:33:02;;;;;;;3.35;2.72;;;18.90;67.50;;;;;;5028151;28;20029;-29
2021/01/31 13:35:28;;;;;;;3.17;2.90;;;18.90;67.30;;;;;;5028890;28;20037;-34
2021/01/31 13:37:54;;;;;;;2.95;2.75;;;18.90;67.30;;;;;;5028734;28;20082;-36
2021/01/31 13:40:19;;;;;;;3.00;2.70;;;18.90;67.50;;;;;;5028629;28;20026;-34
2021/01/31 13:42:45;;;;;;;2.92;2.70;;;18.90;67.30;;;;;;5025996;28;20041;-36
2021/01/31 13:45:13;;;;;;;3.13;2.92;;;19.00;67.20;;;;;;5044892;28;20037;-32
2021/01/31 13:47:38;;;;;;;2.88;2.67;;;19.00;67.50;;;;;;5029150;28;20673;-33
2021/01/31 13:50:05;;;;;;;3.75;2.63;;;19.00;67.50;;;;;;5026063;28;20111;-33
2021/01/31 13:52:30;;;;;;;2.53;2.33;;;19.00;67.10;;;;;;5027558;28;20098;-33
2021/01/31 13:54:56;;;;;;;2.53;2.33;;;19.00;67.80;;;;;;5025055;28;20069;-33
2021/01/31 13:57:24;;;;;;;2.67;2.47;;;19.00;67.60;;;;;;5028521;28;20025;-31
2021/01/31 13:59:49;;;;;;;2.85;2.40;;;19.00;67.30;;;;;;5026057;28;20024;-32
2021/01/31 14:02:15;;;;;;;3.00;2.80;;;19.10;67.20;;;;;;5029469;28;20041;-34
2021/01/31 14:04:42;;;;;;;4.05;2.70;;;19.00;67.50;;;;;;5026481;28;20091;-33
2021/01/31 14:07:08;;;;;;;3.78;2.63;;;19.00;67.60;;;;;;5028380;28;20029;-34
2021/01/31 14:09:34;;;;;;;3.28;2.92;;;19.00;67.50;;;;;;5028777;28;20033;-35
2021/01/31 14:11:59;;;;;;;2.85;2.65;;;19.00;67.40;;;;;;5027893;28;20389;-32
2021/01/31 14:14:25;;;;;;;3.40;3.10;;;19.00;67.70;;;;;;5028568;28;20132;-39
2021/01/31 14:16:50;;;;;;;3.30;3.00;;;19.00;67.50;;;;;;5029107;28;21238;-33
2021/01/31 14:19:16;;;;;;;5.57;3.67;;;19.00;67.70;;;;;;5027733;28;20465;-33
2021/01/31 14:21:42;;;;;;;3.58;3.38;;;18.90;67.70;;;;;;5028982;28;20034;-28
2021/01/31 14:24:07;;;;;;;2.30;2.10;;;19.00;67.40;;;;;;5025325;28;20049;-38
2021/01/31 14:26:33;;;;;;;3.33;2.35;;;19.00;67.50;;;;;;5030585;28;20116;-31
2021/01/31 14:28:59;;;;;;;2.60;2.40;;;19.00;67.50;;;;;;5028689;28;20029;-33
2021/01/31 14:31:24;;;;;;;4.72;2.42;;;19.10;67.30;;;;;;5026602;28;20762;-29
2021/01/31 14:33:50;;;;;;;2.40;2.30;;;19.10;67.30;;;;;;5042956;28;20034;-33
2021/01/31 14:36:16;;;;;;;2.42;2.22;;;19.00;67.10;;;;;;5025106;28;20074;-31
2021/01/31 14:38:41;;;;;;;2.78;2.40;;;19.10;67.50;;;;;;5028311;28;20041;-38
2021/01/31 14:41:07;;;;;;;2.70;2.30;;;19.10;67.10;;;;;;5023721;28;20024;-31
2021/01/31 14:43:33;;;;;;;2.08;1.98;;;19.10;67.20;;;;;;5025300;28;20073;-31
2021/01/31 14:45:58;;;;;;;3.45;2.22;;;19.20;66.90;;;;;;5026552;28;20036;-30
2021/01/31 14:48:24;;;;;;;6.80;2.30;;;19.20;66.90;;;;;;5027254;28;20164;-31
2021/01/31 14:50:49;;;;;;;2.38;2.28;;;19.20;67.00;;;;;;5026113;28;20026;-29
2021/01/31 14:53:15;;;;;;;2.13;1.92;;;19.20;67.00;;;;;;5026587;28;20037;-32
2021/01/31 14:55:40;;;;;;;2.00;1.90;;;19.20;66.80;;;;;;5039779;28;20101;-32
2021/01/31 14:58:06;;;;;;;2.00;1.90;;;19.20;66.90;;;;;;5026107;28;20041;-31
2021/01/31 15:00:37;;;;;;;3.35;2.00;;;19.30;66.60;;;;;;5020057;28;20124;-35
2021/01/31 15:03:05;;;;;;;4.43;2.20;;;19.20;66.90;;;;;;5024096;28;20103;-36
2021/01/31 15:05:31;;;;;;;4.50;2.83;;;19.20;66.80;;;;;;5026690;28;20403;-29
2021/01/31 15:07:56;;;;;;;2.03;1.92;;;19.10;67.20;;;;;;5026631;28;20037;-32
2021/01/31 15:10:22;;;;;;;2.13;1.92;;;19.20;67.10;;;;;;5026555;28;20053;-30
2021/01/31 15:12:47;;;;;;;1.67;1.58;;;19.10;67.10;;;;;;5026876;28;20064;-31
2021/01/31 15:15:13;;;;;;;2.08;1.90;;;19.10;67.20;;;;;;5024234;28;20041;-33
2021/01/31 15:17:39;;;;;;;2.10;1.80;;;19.10;67.30;;;;;;5024109;28;20026;-33
2021/01/31 15:20:06;;;;;;;2.08;1.88;;;19.10;67.30;;;;;;5026538;28;20076;-32
2021/01/31 15:22:32;;;;;;;2.38;1.67;;;19.10;67.40;;;;;;5027734;28;20476;-28
2021/01/31 15:24:58;;;;;;;1.75;1.65;;;19.10;67.40;;;;;;5027089;28;20044;-32
2021/01/31 15:27:24;;;;;;;1.80;1.70;;;19.10;67.50;;;;;;5024691;28;20034;-31
2021/01/31 15:29:50;;;;;;;2.70;2.00;;;19.10;67.30;;;;;;5025491;28;20395;-32
2021/01/31 15:32:15;;;;;;;1.83;1.60;;;19.10;67.30;;;;;;5027359;28;20033;-35
2021/01/31 15:34:41;;;;;;;1.50;1.40;;;19.20;67.40;;;;;;5039518;28;20025;-32
2021/01/31 15:37:06;;;;;;;1.60;1.50;;;19.20;67.10;;;;;;5024851;28;20444;-32
2021/01/31 15:39:32;;;;;;;1.83;1.73;;;19.10;67.00;;;;;;5024994;28;20033;-29
2021/01/31 15:41:58;;;;;;;1.85;1.65;;;19.10;67.30;;;;;;5027317;28;20041;-31
2021/01/31 15:44:27;;;;;;;1.70;1.60;;;19.10;67.30;;;;;;5026139;28;20507;-33
2021/01/31 15:46:53;;;;;;;2.33;1.50;;;19.10;67.30;;;;;;5028208;28;20029;-30
2021/01/31 15:49:19;;;;;;;1.60;1.50;;;19.00;67.20;;;;;;5027276;28;20403;-45
2021/01/31 15:51:44;;;;;;;1.80;1.70;;;19.00;67.50;;;;;;5028184;28;20037;-32
2021/01/31 15:54:10;;;;;;;1.67;1.58;;;18.90;67.50;;;;;;5027291;28;20077;-32
2021/01/31 15:56:35;;;;;;;1.60;1.50;;;18.90;67.50;;;;;;5029296;28;20821;-31
2021/01/31 15:59:01;;;;;;;1.45;1.35;;;19.00;67.40;;;;;;5027643;28;20037;-36
2021/01/31 16:01:26;;;;;;;1.40;1.35;;;18.90;67.30;;;;;;5027246;28;20030;-35
2021/01/31 16:03:52;;;;;;;1.58;1.48;;;18.90;67.40;;;;;;5025665;28;20507;-31
2021/01/31 16:06:18;;;;;;;1.38;1.30;;;18.90;67.40;;;;;;5027679;28;20028;-36
2021/01/31 16:08:43;;;;;;;1.50;1.40;;;18.90;67.40;;;;;;5027559;28;20053;-34
2021/01/31 16:11:09;;;;;;;2.55;1.10;;;18.90;67.40;;;;;;5028549;28;20487;-36
2021/01/31 16:13:34;;;;;;;1.48;1.38;;;19.00;67.20;;;;;;5029749;28;20045;-34